createdAt,value
2022-09-12T00:01:25.670Z,16.17
2022-09-12T00:03:58.061Z,16.22
2022-09-12T00:06:26.353Z,16.23
2022-09-12T00:08:59.017Z,16.16
2022-09-12T00:11:26.554Z,16.15
2022-09-12T00:13:57.532Z,16.10
2022-09-12T00:16:27.251Z,15.82
2022-09-12T00:18:53.905Z,15.81
2022-09-12T00:21:21.419Z,15.88
2022-09-12T00:23:48.235Z,15.94
2022-09-12T00:26:15.687Z,15.83
2022-09-12T00:28:42.287Z,15.73
2022-09-12T00:31:12.143Z,15.83
2022-09-12T00:33:39.097Z,15.82
2022-09-12T00:36:15.425Z,15.79
2022-09-12T00:38:44.042Z,15.83
2022-09-12T00:41:16.302Z,15.81
2022-09-12T00:43:48.986Z,15.86
2022-09-12T00:46:18.534Z,15.75
2022-09-12T00:48:52.199Z,15.81
2022-09-12T00:51:19.521Z,15.78
2022-09-12T00:53:48.216Z,15.76
2022-09-12T00:56:17.704Z,15.60
2022-09-12T00:59:05.616Z,15.45
2022-09-12T01:01:32.897Z,15.58
2022-09-12T01:04:00.523Z,15.59
2022-09-12T01:06:32.295Z,15.65
2022-09-12T01:09:03.506Z,15.63
2022-09-12T01:11:34.272Z,15.64
2022-09-12T01:14:00.980Z,15.38
2022-09-12T01:16:27.632Z,15.47
2022-09-12T01:19:18.830Z,15.46
2022-09-12T01:21:56.768Z,15.56
2022-09-12T01:24:55.945Z,15.54
2022-09-12T01:27:41.334Z,15.49
2022-09-12T01:30:38.521Z,15.43
2022-09-12T01:33:16.505Z,15.48
2022-09-12T01:35:52.231Z,15.46
2022-09-12T01:38:36.199Z,15.48
2022-09-12T01:41:27.265Z,15.48
2022-09-12T01:44:12.867Z,15.46
2022-09-12T01:46:54.522Z,15.41
2022-09-12T01:49:29.554Z,15.47
2022-09-12T01:52:08.973Z,15.26
2022-09-12T01:54:45.278Z,15.32
2022-09-12T01:57:19.416Z,15.39
2022-09-12T01:59:51.439Z,15.43
2022-09-12T02:02:30.268Z,15.33
2022-09-12T02:05:13.563Z,15.11
2022-09-12T02:07:46.827Z,15.13
2022-09-12T02:10:21.544Z,15.24
2022-09-12T02:12:54.925Z,15.12
2022-09-12T02:15:30.011Z,15.07
2022-09-12T02:18:01.431Z,15.16
2022-09-12T02:20:47.528Z,15.19
2022-09-12T02:23:22.449Z,15.20
2022-09-12T02:25:53.733Z,15.22
2022-09-12T02:28:27.616Z,15.22
2022-09-12T02:31:22.281Z,15.14
2022-09-12T02:33:53.181Z,15.12
2022-09-12T02:36:28.664Z,15.17
2022-09-12T02:38:55.496Z,15.26
2022-09-12T02:41:22.766Z,15.26
2022-09-12T02:43:51.504Z,15.19
2022-09-12T02:46:26.382Z,15.18
2022-09-12T02:48:54.271Z,15.19
2022-09-12T02:51:23.732Z,15.04
2022-09-12T02:53:50.945Z,15.02
2022-09-12T02:56:23.532Z,14.93
2022-09-12T02:58:50.354Z,14.80
2022-09-12T03:01:35.901Z,14.92
2022-09-12T03:04:32.480Z,14.94
2022-09-12T03:07:26.633Z,14.98
2022-09-12T03:09:58.021Z,15.01
2022-09-12T03:12:34.029Z,15.02
2022-09-12T03:15:10.759Z,15.00
2022-09-12T03:18:01.664Z,15.04
2022-09-12T03:20:47.607Z,15.01
2022-09-12T03:23:24.887Z,15.01
2022-09-12T03:25:59.022Z,14.88
2022-09-12T03:28:26.739Z,14.89
2022-09-12T03:30:55.751Z,14.80
2022-09-12T03:33:23.940Z,14.78
2022-09-12T03:35:51.483Z,14.85
2022-09-12T03:38:18.918Z,14.89
2022-09-12T03:40:47.786Z,14.89
2022-09-12T03:43:16.094Z,14.78
2022-09-12T03:45:42.716Z,14.75
2022-09-12T03:48:09.331Z,14.70
2022-09-12T03:50:36.098Z,14.66
2022-09-12T03:53:03.791Z,14.80
2022-09-12T03:55:31.009Z,14.73
2022-09-12T03:57:57.651Z,14.73
2022-09-12T04:00:24.609Z,14.83
2022-09-12T04:02:56.865Z,14.84
2022-09-12T04:05:24.423Z,14.69
2022-09-12T04:07:51.546Z,14.72
2022-09-12T04:10:18.254Z,14.84
2022-09-12T04:12:45.252Z,14.88
2022-09-12T04:15:11.918Z,14.88
2022-09-12T04:17:38.488Z,14.90
2022-09-12T04:20:05.615Z,14.70
2022-09-12T04:22:33.193Z,14.67
2022-09-12T04:24:59.802Z,14.69
2022-09-12T04:27:26.461Z,14.69
2022-09-12T04:29:54.736Z,14.69
2022-09-12T04:32:22.308Z,14.74
2022-09-12T04:34:49.334Z,14.79
2022-09-12T04:37:16.864Z,14.71
2022-09-12T04:39:43.681Z,14.77
2022-09-12T04:42:10.356Z,14.55
2022-09-12T04:44:37.471Z,14.50
2022-09-12T04:47:04.136Z,14.34
2022-09-12T04:49:30.775Z,14.08
2022-09-12T04:51:57.349Z,13.97
2022-09-12T04:54:23.957Z,14.04
2022-09-12T04:56:52.443Z,14.20
2022-09-12T04:59:20.435Z,14.25
2022-09-12T05:01:48.286Z,14.29
2022-09-12T05:04:15.560Z,14.34
2022-09-12T05:06:42.900Z,14.66
2022-09-12T05:09:12.629Z,14.71
2022-09-12T05:12:03.336Z,14.43
2022-09-12T05:14:27.585Z,14.52
2022-09-12T05:16:54.200Z,14.69
2022-09-12T05:19:20.840Z,14.70
2022-09-12T05:21:47.320Z,14.76
2022-09-12T05:24:13.928Z,14.84
2022-09-12T05:26:40.424Z,14.82
2022-09-12T05:29:07.266Z,14.77
2022-09-12T05:31:34.715Z,14.73
2022-09-12T05:34:01.587Z,14.60
2022-09-12T05:36:31.322Z,14.51
2022-09-12T05:39:00.000Z,14.39
2022-09-12T05:41:30.636Z,14.43
2022-09-12T05:43:59.232Z,14.40
2022-09-12T05:46:28.327Z,14.32
2022-09-12T05:48:56.830Z,14.12
2022-09-12T05:51:28.566Z,14.41
2022-09-12T05:53:57.791Z,14.50
2022-09-12T05:56:29.680Z,14.69
2022-09-12T05:58:59.943Z,14.86
2022-09-12T06:01:27.838Z,14.97
2022-09-12T06:03:56.559Z,15.00
2022-09-12T06:06:24.948Z,15.07
2022-09-12T06:08:55.862Z,15.03
2022-09-12T06:11:25.972Z,15.12
2022-09-12T06:13:53.154Z,15.17
2022-09-12T06:16:23.260Z,15.30
2022-09-12T06:18:53.195Z,15.44
2022-09-12T06:21:21.746Z,15.54
2022-09-12T06:23:49.076Z,15.62
2022-09-12T06:26:18.358Z,15.72
2022-09-12T06:28:45.078Z,15.85
2022-09-12T06:31:20.456Z,15.85
2022-09-12T06:33:49.348Z,15.88
2022-09-12T06:36:39.983Z,15.95
2022-09-12T06:39:18.291Z,15.98
2022-09-12T06:41:45.576Z,15.95
2022-09-12T06:44:15.875Z,16.10
2022-09-12T06:46:42.549Z,16.16
2022-09-12T06:49:09.076Z,16.26
2022-09-12T06:51:38.174Z,16.24
2022-09-12T06:54:05.332Z,16.19
2022-09-12T06:56:32.085Z,16.15
2022-09-12T06:58:59.332Z,16.06
2022-09-12T07:01:28.764Z,16.12
2022-09-12T07:03:59.197Z,16.21
2022-09-12T07:06:32.046Z,16.39
2022-09-12T07:09:00.867Z,16.49
2022-09-12T07:11:33.454Z,16.52
2022-09-12T07:14:02.629Z,16.54
2022-09-12T07:16:30.407Z,16.76
2022-09-12T07:19:03.325Z,16.83
2022-09-12T07:21:30.642Z,16.87
2022-09-12T07:23:58.159Z,16.96
2022-09-12T07:26:27.551Z,16.97
2022-09-12T07:29:07.930Z,16.90
2022-09-12T07:31:42.521Z,16.98
2022-09-12T07:34:09.188Z,17.03
2022-09-12T07:36:36.136Z,17.07
2022-09-12T07:39:03.031Z,16.98
2022-09-12T07:41:31.417Z,16.96
2022-09-12T07:43:59.541Z,16.89
2022-09-12T07:46:27.136Z,16.86
2022-09-12T07:48:55.341Z,17.00
2022-09-12T07:51:23.215Z,16.88
2022-09-12T07:53:50.402Z,16.94
2022-09-12T07:56:18.116Z,17.06
2022-09-12T07:58:44.773Z,17.21
2022-09-12T08:01:17.630Z,17.19
2022-09-12T08:03:47.188Z,17.24
2022-09-12T08:06:16.509Z,17.29
2022-09-12T08:08:43.488Z,17.29
2022-09-12T08:11:12.889Z,17.31
2022-09-12T08:13:40.984Z,17.32
2022-09-12T08:16:13.462Z,17.41
2022-09-12T08:18:40.877Z,17.44
2022-09-12T08:21:11.948Z,17.56
2022-09-12T08:23:38.551Z,17.58
2022-09-12T08:26:06.567Z,17.62
2022-09-12T08:28:35.087Z,17.65
2022-09-12T08:31:02.529Z,17.73
2022-09-12T08:33:33.486Z,17.80
2022-09-12T08:36:04.688Z,17.80
2022-09-12T08:38:31.799Z,17.68
2022-09-12T08:41:08.964Z,17.70
2022-09-12T08:43:57.544Z,17.81
2022-09-12T08:46:51.625Z,17.92
2022-09-12T08:49:40.851Z,17.94
2022-09-12T08:52:15.454Z,18.03
2022-09-12T08:54:44.873Z,18.10
2022-09-12T08:57:14.292Z,18.20
2022-09-12T08:59:45.381Z,18.22
2022-09-12T09:02:45.788Z,18.41
2022-09-12T09:05:23.727Z,18.52
2022-09-12T09:08:15.869Z,18.65
2022-09-12T09:10:59.608Z,18.63
2022-09-12T09:14:17.485Z,18.62
2022-09-12T09:16:48.064Z,18.68
2022-09-12T09:19:34.018Z,18.80
2022-09-12T09:22:05.813Z,18.80
2022-09-12T09:24:44.609Z,18.83
2022-09-12T09:27:37.294Z,18.91
2022-09-12T09:30:19.772Z,19.19
2022-09-12T09:32:51.002Z,19.67
2022-09-12T09:35:41.115Z,20.07
2022-09-12T09:38:24.588Z,20.41
2022-09-12T09:41:09.845Z,20.51
2022-09-12T09:43:37.988Z,20.53
2022-09-12T09:46:05.392Z,20.47
2022-09-12T09:48:35.720Z,20.40
2022-09-12T09:51:06.947Z,20.80
2022-09-12T09:53:50.487Z,21.11
2022-09-12T09:56:33.161Z,21.28
2022-09-12T09:59:26.085Z,21.68
2022-09-12T10:02:03.883Z,21.75
2022-09-12T10:04:41.839Z,21.90
2022-09-12T10:07:19.225Z,22.10
2022-09-12T10:10:14.397Z,22.01
2022-09-12T10:12:41.426Z,22.13
2022-09-12T10:15:26.575Z,22.46
2022-09-12T10:17:55.392Z,22.54
2022-09-12T10:20:34.158Z,22.52
2022-09-12T10:23:03.913Z,22.47
2022-09-12T10:25:30.841Z,22.47
2022-09-12T10:28:00.418Z,22.21
2022-09-12T10:30:28.664Z,22.11
2022-09-12T10:33:06.864Z,21.77
2022-09-12T10:35:45.360Z,21.66
2022-09-12T10:38:32.107Z,21.50
2022-09-12T10:41:03.443Z,21.54
2022-09-12T10:43:33.206Z,21.63
2022-09-12T10:46:19.766Z,21.87
2022-09-12T10:48:48.088Z,21.81
2022-09-12T10:51:23.828Z,21.81
2022-09-12T10:54:02.444Z,21.54
2022-09-12T10:56:33.503Z,21.63
2022-09-12T10:59:20.382Z,21.55
2022-09-12T11:01:52.495Z,21.51
2022-09-12T11:04:46.299Z,21.49
2022-09-12T11:07:46.766Z,21.63
2022-09-12T11:10:41.446Z,21.65
2022-09-12T11:13:23.585Z,21.84
2022-09-12T11:16:28.659Z,21.95
2022-09-12T11:19:21.974Z,21.83
2022-09-12T11:22:07.429Z,21.75
2022-09-12T11:25:03.852Z,21.78
2022-09-12T11:27:52.273Z,22.02
2022-09-12T11:30:18.859Z,22.05
2022-09-12T11:33:09.192Z,22.07
2022-09-12T11:35:45.340Z,21.90
2022-09-12T11:38:30.759Z,21.67
2022-09-12T11:41:09.228Z,21.70
2022-09-12T11:43:44.311Z,21.62
2022-09-12T11:46:14.155Z,21.53
2022-09-12T11:48:47.016Z,21.66
2022-09-12T11:51:28.719Z,21.81
2022-09-12T11:54:24.919Z,21.77
2022-09-12T11:57:03.363Z,21.87
2022-09-12T11:59:42.965Z,22.08
2022-09-12T12:02:30.781Z,22.10
2022-09-12T12:05:09.740Z,22.14
2022-09-12T12:07:54.679Z,22.07
2022-09-12T12:10:26.199Z,22.06
2022-09-12T12:12:56.363Z,22.28
2022-09-12T12:15:25.685Z,22.28
2022-09-12T12:18:08.273Z,22.28
2022-09-12T12:20:36.037Z,22.20
2022-09-12T12:23:03.937Z,22.30
2022-09-12T12:26:00.690Z,22.43
2022-09-12T12:28:42.600Z,22.43
2022-09-12T12:31:10.700Z,22.49
2022-09-12T12:33:37.299Z,22.53
2022-09-12T12:36:10.623Z,22.46
2022-09-12T12:38:39.330Z,22.32
2022-09-12T12:41:28.840Z,22.30
2022-09-12T12:43:57.505Z,22.33
2022-09-12T12:46:26.792Z,22.48
2022-09-12T12:49:27.494Z,22.50
2022-09-12T12:51:53.937Z,22.59
2022-09-12T12:54:48.572Z,22.58
2022-09-12T12:57:35.985Z,22.51
2022-09-12T13:00:09.269Z,22.54
2022-09-12T13:02:42.284Z,22.61
2022-09-12T13:05:24.429Z,22.61
2022-09-12T13:08:11.872Z,22.82
2022-09-12T13:10:38.849Z,22.89
2022-09-12T13:13:08.564Z,22.92
2022-09-12T13:15:38.158Z,22.81
2022-09-12T13:18:13.564Z,22.81
2022-09-12T13:20:59.763Z,22.95
2022-09-12T13:23:31.381Z,23.15
2022-09-12T13:26:00.508Z,23.21
2022-09-12T13:28:28.611Z,23.09
2022-09-12T13:31:03.744Z,23.10
2022-09-12T13:33:45.857Z,22.90
2022-09-12T13:36:31.352Z,22.82
2022-09-12T13:39:24.911Z,22.99
2022-09-12T13:42:16.428Z,22.87
2022-09-12T13:44:47.150Z,22.87
2022-09-12T13:47:18.728Z,22.90
2022-09-12T13:49:46.999Z,22.91
2022-09-12T13:52:21.245Z,22.99
2022-09-12T13:54:52.236Z,23.06
2022-09-12T13:57:29.644Z,23.06
2022-09-12T13:59:58.076Z,23.13
2022-09-12T14:02:28.734Z,23.39
2022-09-12T14:06:20.543Z,23.41
2022-09-12T14:08:48.159Z,23.37
2022-09-12T14:11:27.121Z,23.31
2022-09-12T14:13:56.248Z,23.24
2022-09-12T14:16:25.881Z,23.42
2022-09-12T14:18:52.870Z,23.43
2022-09-12T14:21:30.233Z,23.36
2022-09-12T14:23:57.964Z,23.42
2022-09-12T14:26:28.215Z,23.43
2022-09-12T14:28:55.071Z,23.26
2022-09-12T14:31:31.188Z,23.32
2022-09-12T14:34:18.818Z,23.35
2022-09-12T14:36:50.722Z,23.28
2022-09-12T14:39:31.931Z,23.21
2022-09-12T14:42:20.768Z,23.28
2022-09-12T14:45:05.867Z,23.48
2022-09-12T14:47:40.811Z,23.48
2022-09-12T14:50:20.575Z,23.48
2022-09-12T14:53:04.694Z,23.51
2022-09-12T14:55:33.723Z,23.52
2022-09-12T14:58:15.463Z,23.48
2022-09-12T15:00:57.991Z,23.53
2022-09-12T15:03:36.786Z,23.58
2022-09-12T15:06:05.715Z,23.66
2022-09-12T15:08:32.366Z,23.60
2022-09-12T15:11:00.118Z,23.59
2022-09-12T15:13:28.683Z,23.45
2022-09-12T15:15:57.571Z,23.54
2022-09-12T15:18:26.324Z,23.62
2022-09-12T15:20:57.198Z,23.79
2022-09-12T15:23:32.808Z,23.73
2022-09-12T15:26:00.309Z,23.62
2022-09-12T15:28:27.821Z,23.68
2022-09-12T15:30:56.464Z,23.81
2022-09-12T15:33:25.223Z,23.84
2022-09-12T15:35:52.955Z,23.81
2022-09-12T15:38:25.620Z,23.88
2022-09-12T15:40:53.850Z,23.85
2022-09-12T15:43:22.325Z,23.82
2022-09-12T15:45:52.243Z,23.87
2022-09-12T15:48:20.496Z,23.84
2022-09-12T15:50:47.330Z,23.87
2022-09-12T15:53:16.242Z,23.95
2022-09-12T15:55:43.636Z,24.05
2022-09-12T15:58:10.617Z,24.10
2022-09-12T16:00:37.268Z,24.07
2022-09-12T16:03:03.985Z,24.06
2022-09-12T16:05:30.576Z,24.07
2022-09-12T16:07:57.104Z,24.00
2022-09-12T16:10:27.373Z,24.08
2022-09-12T16:12:53.960Z,24.07
2022-09-12T16:15:25.200Z,23.93
2022-09-12T16:17:52.145Z,23.83
2022-09-12T16:20:19.470Z,23.76
2022-09-12T16:22:46.334Z,23.78
2022-09-12T16:25:12.936Z,23.72
2022-09-12T16:27:39.835Z,23.80
2022-09-12T16:30:07.757Z,23.86
2022-09-12T16:32:35.063Z,23.91
2022-09-12T16:35:01.864Z,23.88
2022-09-12T16:37:28.970Z,23.85
2022-09-12T16:39:55.585Z,23.94
2022-09-12T16:42:22.390Z,24.05
2022-09-12T16:44:48.897Z,24.00
2022-09-12T16:47:15.440Z,23.78
2022-09-12T16:49:42.149Z,23.65
2022-09-12T16:52:10.113Z,23.61
2022-09-12T16:54:36.693Z,23.54
2022-09-12T16:57:05.133Z,23.57
2022-09-12T16:59:32.404Z,23.68
2022-09-12T17:01:59.201Z,23.79
2022-09-12T17:04:25.839Z,23.82
2022-09-12T17:06:52.375Z,23.96
2022-09-12T17:09:19.181Z,23.92
2022-09-12T17:11:47.677Z,23.99
2022-09-12T17:14:14.354Z,23.85
2022-09-12T17:16:46.937Z,23.60
2022-09-12T17:19:18.019Z,23.50
2022-09-12T17:21:47.484Z,23.40
2022-09-12T17:24:14.997Z,23.30
2022-09-12T17:26:41.724Z,23.12
2022-09-12T17:29:08.271Z,22.96
2022-09-12T17:31:35.084Z,22.89
2022-09-12T17:34:02.287Z,22.82
2022-09-12T17:36:32.549Z,22.77
2022-09-12T17:38:59.817Z,22.69
2022-09-12T17:41:30.778Z,22.62
2022-09-12T17:43:58.864Z,22.56
2022-09-12T17:46:29.823Z,22.43
2022-09-12T17:48:58.231Z,22.47
2022-09-12T17:51:26.160Z,22.33
2022-09-12T17:54:11.587Z,22.12
2022-09-12T17:56:39.517Z,21.98
2022-09-12T17:59:07.542Z,21.89
2022-09-12T18:01:53.369Z,21.83
2022-09-12T18:04:20.045Z,21.81
2022-09-12T18:06:50.069Z,21.66
2022-09-12T18:09:20.221Z,21.59
2022-09-12T18:11:48.178Z,21.52
2022-09-12T18:14:15.054Z,21.52
2022-09-12T18:16:42.597Z,21.45
2022-09-12T18:19:10.962Z,21.41
2022-09-12T18:21:38.481Z,21.40
2022-09-12T18:24:06.029Z,21.29
2022-09-12T18:26:33.200Z,21.25
2022-09-12T18:28:59.728Z,21.28
2022-09-12T18:31:29.015Z,21.28
2022-09-12T18:33:56.927Z,21.30
2022-09-12T18:36:23.790Z,21.26
2022-09-12T18:38:50.359Z,21.18
2022-09-12T18:41:20.933Z,21.08
2022-09-12T18:43:48.530Z,21.03
2022-09-12T18:46:18.184Z,20.98
2022-09-12T18:48:45.859Z,20.97
2022-09-12T18:51:18.154Z,20.93
2022-09-12T18:53:50.956Z,20.90
2022-09-12T18:56:17.756Z,20.85
2022-09-12T18:58:44.643Z,20.86
2022-09-12T19:01:31.927Z,20.81
2022-09-12T19:04:00.816Z,20.88
2022-09-12T19:06:29.517Z,21.01
2022-09-12T19:08:57.676Z,21.02
2022-09-12T19:11:26.223Z,21.19
2022-09-12T19:13:54.154Z,21.08
2022-09-12T19:16:23.999Z,21.01
2022-09-12T19:18:52.297Z,21.00
2022-09-12T19:21:22.313Z,21.01
2022-09-12T19:23:49.480Z,21.04
2022-09-12T19:26:17.743Z,21.08
2022-09-12T19:28:45.457Z,21.08
2022-09-12T19:31:15.887Z,21.04
2022-09-12T19:33:42.755Z,21.08
2022-09-12T19:36:33.643Z,21.05
2022-09-12T19:38:59.870Z,21.03
2022-09-12T19:41:26.714Z,21.03
2022-09-12T19:43:55.199Z,21.01
2022-09-12T19:46:24.092Z,20.99
2022-09-12T19:48:52.453Z,20.95
2022-09-12T19:51:20.587Z,20.92
2022-09-12T19:53:47.680Z,20.91
2022-09-12T19:56:14.858Z,20.91
2022-09-12T19:58:44.478Z,20.87
2022-09-12T20:01:18.874Z,20.85
2022-09-12T20:03:46.774Z,20.83
2022-09-12T20:06:17.032Z,20.81
2022-09-12T20:08:44.299Z,20.80
2022-09-12T20:11:14.168Z,20.78
2022-09-12T20:13:41.267Z,20.77
2022-09-12T20:16:19.046Z,20.75
2022-09-12T20:18:52.184Z,20.75
2022-09-12T20:21:20.508Z,20.74
2022-09-12T20:23:47.221Z,20.72
2022-09-12T20:26:13.791Z,20.72
2022-09-12T20:28:41.594Z,20.69
2022-09-12T20:31:12.303Z,20.70
2022-09-12T20:33:39.428Z,20.67
2022-09-12T20:36:18.695Z,20.67
2022-09-12T20:38:50.814Z,20.64
2022-09-12T20:41:18.880Z,20.51
2022-09-12T20:43:48.931Z,20.53
2022-09-12T20:46:19.731Z,20.53
2022-09-12T20:48:48.047Z,20.43
2022-09-12T20:51:14.597Z,20.56
2022-09-12T20:53:41.566Z,20.64
2022-09-12T20:56:08.435Z,20.73
2022-09-12T20:58:36.326Z,20.72
2022-09-12T21:01:08.937Z,20.95
2022-09-12T21:03:39.670Z,21.01
2022-09-12T21:06:08.183Z,21.02
2022-09-12T21:08:35.619Z,21.14
2022-09-12T21:11:02.660Z,21.02
2022-09-12T21:13:29.380Z,21.01
2022-09-12T21:16:03.195Z,20.96
2022-09-12T21:18:31.464Z,20.86
2022-09-12T21:20:58.168Z,20.83
2022-09-12T21:23:25.984Z,20.87
2022-09-12T21:25:52.948Z,20.84
2022-09-12T21:28:20.525Z,20.84
2022-09-12T21:30:51.262Z,20.87
2022-09-12T21:33:20.271Z,20.86
2022-09-12T21:35:47.762Z,20.87
2022-09-12T21:38:15.393Z,20.88
2022-09-12T21:40:42.041Z,20.81
2022-09-12T21:43:12.553Z,20.86
2022-09-12T21:45:40.313Z,20.85
2022-09-12T21:48:06.898Z,20.81
2022-09-12T21:50:33.538Z,20.80
2022-09-12T21:53:00.276Z,20.80
2022-09-12T21:55:27.351Z,20.70
2022-09-12T21:57:54.919Z,20.70
2022-09-12T22:00:21.945Z,20.68
2022-09-12T22:02:48.856Z,20.68
2022-09-12T22:05:15.616Z,20.63
2022-09-12T22:07:42.182Z,20.65
2022-09-12T22:10:09.236Z,20.57
2022-09-12T22:12:35.792Z,20.57
2022-09-12T22:15:17.466Z,20.58
2022-09-12T22:17:49.219Z,20.58
2022-09-12T22:20:15.851Z,20.66
2022-09-12T22:23:01.214Z,20.73
2022-09-12T22:25:27.972Z,20.74
2022-09-12T22:27:54.914Z,20.76
2022-09-12T22:30:22.272Z,20.73
2022-09-12T22:32:50.369Z,20.75
2022-09-12T22:35:18.378Z,20.75
2022-09-12T22:37:46.741Z,20.73
2022-09-12T22:40:13.687Z,20.72
2022-09-12T22:42:40.370Z,20.63
2022-09-12T22:45:07.739Z,20.68
2022-09-12T22:47:34.368Z,20.79
2022-09-12T22:50:01.156Z,20.74
2022-09-12T22:52:27.749Z,20.76
2022-09-12T22:54:54.459Z,20.83
2022-09-12T22:57:20.955Z,20.87
2022-09-12T22:59:47.707Z,20.87
2022-09-12T23:02:14.289Z,20.85
2022-09-12T23:04:40.921Z,20.87
2022-09-12T23:07:07.518Z,20.84
2022-09-12T23:09:35.576Z,20.85
2022-09-12T23:12:02.728Z,20.89
2022-09-12T23:14:29.344Z,20.85
2022-09-12T23:16:56.046Z,20.78
2022-09-12T23:19:22.825Z,20.72
2022-09-12T23:21:49.759Z,20.58
2022-09-12T23:24:16.389Z,20.57
2022-09-12T23:26:43.128Z,20.68
2022-09-12T23:29:09.763Z,20.76
2022-09-12T23:31:36.542Z,20.76
2022-09-12T23:34:05.936Z,20.76
2022-09-12T23:36:33.334Z,20.75
2022-09-12T23:38:59.890Z,20.74
2022-09-12T23:41:26.885Z,20.73
2022-09-12T23:43:53.623Z,20.74
2022-09-12T23:46:21.179Z,20.76
2022-09-12T23:48:48.089Z,20.77
2022-09-12T23:51:14.924Z,20.76
2022-09-12T23:53:42.073Z,20.82
2022-09-12T23:56:08.675Z,20.86
2022-09-12T23:58:35.280Z,20.87
